Hill Air Force Base
KHIF : now visible

Airfield :











YOU CAN JOIN US ON...

 
LOGIN :

Register | Disclaimer

   EN    FR    IT 

 









Legend :    VFR   Marginal VFR   IFR   Intensive IFR   Very Intensive IFR
Visi :
Ceiling :
>= 8 km
>= 3000ft
5 to 8 km
1000 to 3000 ft
1500m to 5 km
500 to 1000 ft
800 to 1500m
200 to 500 ft
< 800m
< 200 ft
Symbols :   Thunderstorms  Fog  Heavy snow  Heavy precipitations  Wind > 20 kt






- Airport Elevation : 4789 ft


KHIF - Hill Air Force Base

CURRENT METAR :
  • 042258Z AUTO 27006KT 10SM CLR 02/M11 A3039 RMK AO2 SLP314 T00151107

EXPIRED METARs :
  • 042158Z AUTO 31005KT 10SM CLR 02/M11 A3040 RMK AO2 SLP317 T00231113
  • 042058Z AUTO 34003KT 10SM CLR 02/M11 A3041 RMK AO2 SLP321 T00191113 57019

TAF TAF KHIF
Valid from the 04 at 22:00 until the 06 at 04:00 UTC


042200Z 0422/0604 VRB06KT 9999 SKC QNH3038INS
BECMG 0502/0503 10012KT 9999 SKC QNH3042INS
BECMG 0517/0518 27009KT 9999 SKC QNH3039INS TX03/0422Z TNM04/0514Z
KZLC FIR / North America



MET'MAP, your aeronautical weather chart ! - Copyright ORBIFLY December 2007 - Disclaimer

ORBIFLY MET'MAP TEAM :

Programming & Development : Alexandra Zaïnal
Concept & original design : Baudouin d'Aumeries
Assistance for programming : Marc-Olivier Méhu
Technical & hardware support : Manuel Goepfert

Contact : metmap@orbifly.com




SOURCES & CREDITS :

   NOAA       Earth
Advisory